Time;durP1;ratioP1;P1;durP2;ratioP2;P2;SDS_P1;SDS_P2;PMS_P1;PMS_P2;Temp;Humidity;BMP_temperature;BMP_pressure;BME280_temperature;BME280_humidity;BME280_pressure;Samples;Min_cycle;Max_cycle;Signal;HPM_P1;HPM_P2
2021/11/22 00:00:36;;;;;;;17.10;14.10;;;5.70;99.90;;;;;;5032155;28;20487;-65
2021/11/22 00:03:03;;;;;;;15.70;12.87;;;5.70;99.90;;;;;;5027896;28;20819;-64
2021/11/22 00:05:28;;;;;;;16.53;13.57;;;5.80;99.90;;;;;;5026692;28;20425;-64
2021/11/22 00:07:54;;;;;;;14.70;12.80;;;5.80;99.90;;;;;;5033227;28;20856;-64
2021/11/22 00:10:19;;;;;;;18.07;14.50;;;5.80;99.90;;;;;;5032927;28;20178;-65
2021/11/22 00:12:45;;;;;;;18.60;15.00;;;5.80;99.90;;;;;;5021307;28;20554;-64
2021/11/22 00:15:14;;;;;;;14.33;12.83;;;5.80;99.90;;;;;;5015849;28;20183;-65
2021/11/22 00:17:40;;;;;;;16.20;14.50;;;5.80;99.90;;;;;;5024272;28;20202;-65
2021/11/22 00:20:09;;;;;;;16.97;14.67;;;5.90;99.90;;;;;;5025456;28;20870;-65
2021/11/22 00:22:35;;;;;;;17.50;13.50;;;5.80;99.90;;;;;;5031610;28;20747;-65
2021/11/22 00:25:01;;;;;;;19.57;13.90;;;5.80;99.90;;;;;;5020869;28;20457;-64
2021/11/22 00:27:27;;;;;;;21.20;14.47;;;5.70;99.90;;;;;;5031511;28;20720;-65
2021/11/22 00:29:52;;;;;;;20.50;14.40;;;5.70;99.90;;;;;;5022243;28;20429;-65
2021/11/22 00:32:18;;;;;;;16.43;13.67;;;5.80;99.90;;;;;;5026370;28;20229;-64
2021/11/22 00:34:44;;;;;;;20.40;15.70;;;5.80;99.90;;;;;;5015686;28;20522;-64
2021/11/22 00:37:19;;;;;;;19.87;14.63;;;5.70;99.90;;;;;;5017059;28;20182;-64
2021/11/22 00:39:45;;;;;;;20.17;14.80;;;5.70;99.90;;;;;;5028311;28;20434;-64
2021/11/22 00:42:11;;;;;;;16.43;14.20;;;5.80;99.90;;;;;;5028293;28;20529;-64
2021/11/22 00:44:38;;;;;;;17.87;14.13;;;5.80;99.90;;;;;;5022066;28;20940;-64
2021/11/22 00:47:05;;;;;;;17.00;13.37;;;5.80;99.90;;;;;;5020592;28;20183;-64
2021/11/22 00:49:31;;;;;;;20.30;15.03;;;5.70;99.90;;;;;;5031450;28;20433;-65
2021/11/22 00:51:57;;;;;;;18.40;14.33;;;5.80;99.90;;;;;;5031028;28;20539;-64
2021/11/22 00:54:22;;;;;;;19.90;15.03;;;5.80;99.90;;;;;;5031030;28;20571;-64
2021/11/22 00:56:48;;;;;;;20.03;13.90;;;5.80;99.90;;;;;;5030076;28;20194;-64
2021/11/22 00:59:14;;;;;;;18.57;15.17;;;5.80;99.90;;;;;;5015642;28;20210;-65
2021/11/22 01:01:39;;;;;;;21.73;16.27;;;5.90;99.90;;;;;;5013897;28;20262;-64
2021/11/22 01:04:05;;;;;;;20.23;15.70;;;5.90;99.90;;;;;;5019578;28;20240;-64
2021/11/22 01:06:31;;;;;;;23.30;16.47;;;5.90;99.90;;;;;;5015840;28;20244;-64
2021/11/22 01:08:56;;;;;;;26.73;17.27;;;5.90;99.90;;;;;;5030600;28;20224;-64
2021/11/22 01:11:22;;;;;;;16.73;14.87;;;5.90;99.90;;;;;;5014415;28;20253;-64
2021/11/22 01:13:48;;;;;;;22.63;15.67;;;5.90;99.90;;;;;;5014838;28;20209;-64
2021/11/22 01:16:14;;;;;;;20.70;14.93;;;5.90;99.90;;;;;;5013787;28;20191;-64
2021/11/22 01:18:40;;;;;;;20.10;14.77;;;5.90;99.90;;;;;;5020927;28;20627;-64
2021/11/22 01:21:06;;;;;;;20.13;16.70;;;5.90;99.90;;;;;;5020596;28;20452;-65
2021/11/22 01:23:32;;;;;;;20.03;16.17;;;5.90;99.90;;;;;;5023360;28;20206;-65
2021/11/22 01:25:59;;;;;;;19.03;15.33;;;5.80;99.90;;;;;;5013800;28;20429;-64
2021/11/22 01:28:25;;;;;;;18.83;15.33;;;5.90;99.90;;;;;;5013092;28;20571;-65
2021/11/22 01:30:50;;;;;;;19.10;14.50;;;5.90;99.90;;;;;;5032188;28;20823;-64
2021/11/22 01:33:16;;;;;;;16.07;13.90;;;5.80;99.90;;;;;;5021063;28;20492;-64
2021/11/22 01:35:43;;;;;;;18.77;15.10;;;5.80;99.90;;;;;;5025421;28;20190;-64
2021/11/22 01:38:09;;;;;;;18.70;15.00;;;5.70;99.90;;;;;;5029572;28;20216;-64
2021/11/22 01:40:35;;;;;;;20.00;15.13;;;5.70;99.90;;;;;;5029922;28;20440;-64
2021/11/22 01:43:00;;;;;;;19.60;16.43;;;5.70;99.90;;;;;;5021819;28;20497;-64
2021/11/22 01:45:26;;;;;;;19.10;15.03;;;5.70;99.90;;;;;;5019276;28;20436;-64
2021/11/22 01:47:53;;;;;;;24.43;16.33;;;5.70;99.90;;;;;;5019926;28;20185;-65
2021/11/22 01:50:21;;;;;;;21.40;15.53;;;5.70;99.90;;;;;;5017875;28;20947;-64
2021/11/22 01:52:48;;;;;;;20.07;15.60;;;5.70;99.90;;;;;;5026256;28;20456;-65
2021/11/22 01:55:18;;;;;;;19.10;14.83;;;5.70;99.90;;;;;;5030282;28;20869;-63
2021/11/22 01:57:44;;;;;;;27.33;18.10;;;5.80;99.90;;;;;;5023202;28;20460;-64
2021/11/22 02:00:18;;;;;;;20.47;15.40;;;5.80;99.90;;;;;;5026844;28;20820;-64
2021/11/22 02:02:43;;;;;;;23.80;16.47;;;5.70;99.90;;;;;;5024995;28;20452;-65
2021/11/22 02:05:09;;;;;;;21.80;16.43;;;5.70;99.90;;;;;;5030884;28;20856;-64
2021/11/22 02:07:35;;;;;;;23.27;16.90;;;5.70;99.90;;;;;;5029831;28;20178;-64
2021/11/22 02:10:02;;;;;;;24.33;17.60;;;5.70;99.90;;;;;;5023234;28;20183;-64
2021/11/22 02:12:31;;;;;;;18.43;15.97;;;5.70;99.90;;;;;;5028899;28;20471;-65
2021/11/22 02:14:57;;;;;;;22.47;16.40;;;5.70;99.90;;;;;;5017855;28;21031;-64
2021/11/22 02:17:22;;;;;;;27.30;18.87;;;5.70;99.90;;;;;;5016728;28;20520;-65
2021/11/22 02:20:02;;;;;;;23.03;17.23;;;5.70;99.90;;;;;;5030728;28;20192;-64
2021/11/22 02:22:28;;;;;;;23.30;16.33;;;5.70;99.90;;;;;;5016138;28;20217;-65
2021/11/22 02:24:53;;;;;;;28.53;18.17;;;5.70;99.90;;;;;;5025702;28;20828;-65
2021/11/22 02:27:19;;;;;;;27.40;17.83;;;5.60;99.90;;;;;;5018685;28;20175;-64
2021/11/22 02:29:45;;;;;;;28.17;18.27;;;5.60;99.90;;;;;;5030084;28;20189;-64
2021/11/22 02:32:10;;;;;;;23.00;17.70;;;5.60;99.90;;;;;;5023308;28;20224;-63
2021/11/22 02:34:38;;;;;;;25.20;17.60;;;5.70;99.90;;;;;;5035494;28;20787;-64
2021/11/22 02:37:04;;;;;;;30.53;20.63;;;5.60;99.90;;;;;;5026428;28;20182;-64
2021/11/22 02:39:29;;;;;;;26.67;18.90;;;5.60;99.90;;;;;;5018669;28;20453;-65
2021/11/22 02:41:55;;;;;;;23.33;17.50;;;5.50;99.90;;;;;;5033431;28;20220;-65
2021/11/22 02:44:21;;;;;;;27.60;19.57;;;5.50;99.90;;;;;;5033558;28;20190;-64
2021/11/22 02:46:46;;;;;;;29.07;18.30;;;5.50;99.90;;;;;;5033212;28;20252;-64
2021/11/22 02:49:12;;;;;;;27.77;18.93;;;5.50;99.90;;;;;;5022340;28;20941;-64
2021/11/22 02:51:39;;;;;;;29.63;19.90;;;5.50;99.90;;;;;;5034976;28;20182;-65
2021/11/22 02:54:05;;;;;;;27.77;19.70;;;5.50;99.90;;;;;;5030902;28;20700;-64
2021/11/22 02:56:33;;;;;;;27.03;18.70;;;5.50;99.90;;;;;;5025108;28;20528;-64
2021/11/22 02:58:59;;;;;;;31.40;20.53;;;5.60;99.90;;;;;;5024784;28;20217;-64
2021/11/22 03:01:25;;;;;;;34.73;20.50;;;5.60;99.90;;;;;;5026007;28;20433;-65
2021/11/22 03:03:51;;;;;;;30.03;20.50;;;5.60;99.90;;;;;;5032454;28;20494;-65
2021/11/22 03:06:18;;;;;;;28.10;20.40;;;5.60;99.90;;;;;;5025727;28;20455;-64
2021/11/22 03:08:45;;;;;;;29.70;18.87;;;5.60;99.90;;;;;;5028979;28;20504;-64
2021/11/22 03:11:11;;;;;;;33.47;19.20;;;5.70;99.90;;;;;;5020558;28;20437;-64
2021/11/22 03:13:38;;;;;;;25.60;19.43;;;5.70;99.90;;;;;;5030194;28;22040;-64
2021/11/22 03:16:04;;;;;;;30.97;19.37;;;5.60;99.90;;;;;;5027892;28;20434;-64
2021/11/22 03:18:30;;;;;;;29.30;19.00;;;5.60;99.90;;;;;;5026684;28;21061;-64
2021/11/22 03:20:57;;;;;;;26.80;17.83;;;5.60;99.90;;;;;;5030418;28;20441;-64
2021/11/22 03:23:23;;;;;;;25.80;18.00;;;5.60;99.90;;;;;;5016853;28;20198;-64
2021/11/22 03:25:48;;;;;;;28.17;18.30;;;5.60;99.90;;;;;;5024654;28;20441;-64
2021/11/22 03:28:16;;;;;;;28.33;18.30;;;5.50;99.90;;;;;;5024167;28;20190;-64
2021/11/22 03:30:42;;;;;;;26.30;18.50;;;5.50;99.90;;;;;;5032693;28;20171;-64
2021/11/22 03:33:07;;;;;;;28.37;19.77;;;5.50;99.90;;;;;;5027167;28;20458;-64
2021/11/22 03:35:34;;;;;;;29.23;18.73;;;5.50;99.90;;;;;;5019135;28;20189;-64
2021/11/22 03:37:59;;;;;;;30.40;19.20;;;5.50;99.90;;;;;;5025283;28;20202;-64
2021/11/22 03:40:26;;;;;;;25.13;18.70;;;5.60;99.90;;;;;;5016574;28;20433;-64
2021/11/22 03:43:13;;;;;;;28.50;18.80;;;5.70;99.90;;;;;;5031114;28;20221;-64
2021/11/22 03:45:47;;;;;;;23.80;17.83;;;5.70;99.90;;;;;;5014624;28;20441;-64
2021/11/22 03:48:13;;;;;;;28.63;20.13;;;5.70;99.90;;;;;;5025597;28;20436;-64
2021/11/22 03:50:39;;;;;;;31.03;18.70;;;5.70;99.90;;;;;;5019267;28;20467;-64
2021/11/22 03:53:05;;;;;;;26.83;18.00;;;5.70;99.90;;;;;;5031855;28;20518;-64
2021/11/22 03:55:30;;;;;;;25.03;18.33;;;5.70;99.90;;;;;;5029981;28;20441;-64
2021/11/22 03:57:56;;;;;;;27.77;17.63;;;5.70;99.90;;;;;;5029097;28;20751;-64
2021/11/22 04:00:24;;;;;;;27.07;17.53;;;5.60;99.90;;;;;;5020022;28;20587;-64
2021/11/22 04:02:50;;;;;;;28.93;19.20;;;5.50;99.90;;;;;;5015094;28;20245;-64
2021/11/22 04:05:16;;;;;;;28.57;18.90;;;5.60;99.90;;;;;;5023813;28;20430;-64
2021/11/22 04:07:41;;;;;;;24.73;19.20;;;5.50;99.90;;;;;;5027035;28;20444;-63
2021/11/22 04:10:07;;;;;;;26.30;18.87;;;5.50;99.90;;;;;;5031026;28;20695;-64
2021/11/22 04:12:32;;;;;;;27.50;19.30;;;5.50;99.90;;;;;;5031272;28;20209;-64
2021/11/22 04:14:58;;;;;;;27.60;18.63;;;5.60;99.90;;;;;;5031601;28;20190;-64
2021/11/22 04:17:24;;;;;;;25.97;19.63;;;5.60;99.90;;;;;;5025887;28;20194;-63
2021/11/22 04:19:50;;;;;;;23.97;17.80;;;5.60;99.90;;;;;;5023392;28;20210;-62
2021/11/22 04:22:16;;;;;;;23.60;17.47;;;5.60;99.90;;;;;;5019181;28;20207;-63
2021/11/22 04:24:42;;;;;;;25.27;19.17;;;5.60;99.90;;;;;;5028228;28;20437;-65
2021/11/22 04:27:12;;;;;;;28.03;17.80;;;5.60;99.90;;;;;;5024608;28;20440;-64
2021/11/22 04:29:40;;;;;;;23.40;17.67;;;5.60;99.90;;;;;;5030230;28;20265;-64
2021/11/22 04:32:07;;;;;;;20.10;16.40;;;5.60;99.90;;;;;;5030314;28;20464;-65
2021/11/22 04:34:33;;;;;;;24.13;17.80;;;5.60;99.90;;;;;;5018390;28;20457;-64
2021/11/22 04:36:59;;;;;;;25.90;16.90;;;5.60;99.90;;;;;;5016548;28;20442;-65
2021/11/22 04:39:25;;;;;;;20.37;17.20;;;5.60;99.90;;;;;;5021168;28;20965;-65
2021/11/22 04:41:54;;;;;;;23.10;17.63;;;5.70;99.90;;;;;;5019070;28;20179;-63
2021/11/22 04:44:19;;;;;;;25.20;16.80;;;5.60;99.90;;;;;;5014230;28;20477;-65
2021/11/22 04:46:45;;;;;;;19.73;15.93;;;5.60;99.90;;;;;;5018619;28;20890;-63
2021/11/22 04:49:10;;;;;;;23.97;17.17;;;5.60;99.90;;;;;;5025484;28;20175;-65
2021/11/22 04:51:37;;;;;;;22.70;16.23;;;5.60;99.90;;;;;;5029615;28;20192;-63
2021/11/22 04:54:03;;;;;;;23.63;15.63;;;5.60;99.90;;;;;;5015926;28;20703;-64
2021/11/22 04:56:28;;;;;;;20.83;15.13;;;5.60;99.90;;;;;;5028218;28;20436;-64
2021/11/22 04:58:54;;;;;;;21.80;16.70;;;5.60;99.90;;;;;;5027498;28;20673;-64
2021/11/22 05:01:20;;;;;;;21.50;16.03;;;5.60;99.90;;;;;;5023481;28;20171;-63
2021/11/22 05:03:48;;;;;;;26.47;17.23;;;5.60;99.90;;;;;;5012815;28;20198;-63
2021/11/22 05:06:14;;;;;;;24.53;17.40;;;5.60;99.90;;;;;;5028798;28;20413;-64
2021/11/22 05:08:39;;;;;;;19.57;15.93;;;5.60;99.90;;;;;;5024212;28;20437;-63
2021/11/22 05:11:05;;;;;;;22.70;15.93;;;5.60;99.90;;;;;;5028788;28;20186;-64
2021/11/22 05:13:31;;;;;;;21.50;15.30;;;5.70;99.90;;;;;;5013761;28;20241;-66
2021/11/22 05:15:56;;;;;;;18.80;14.17;;;5.70;99.90;;;;;;5013822;28;20187;-64
2021/11/22 05:18:22;;;;;;;19.90;14.83;;;5.80;99.90;;;;;;5029668;28;20218;-64
2021/11/22 05:20:47;;;;;;;19.30;15.50;;;5.80;99.90;;;;;;5029443;28;20179;-64
2021/11/22 05:23:14;;;;;;;23.03;16.13;;;5.70;99.90;;;;;;5028943;28;20317;-64
2021/11/22 05:25:39;;;;;;;19.73;14.97;;;5.80;99.90;;;;;;5030705;28;20185;-63
2021/11/22 05:28:05;;;;;;;18.87;14.17;;;5.80;99.90;;;;;;5029497;28;20452;-63
2021/11/22 05:30:31;;;;;;;23.07;16.13;;;5.90;99.90;;;;;;5013543;28;20722;-65
2021/11/22 05:32:59;;;;;;;22.57;15.07;;;5.80;99.90;;;;;;5021530;28;20537;-65
2021/11/22 05:35:26;;;;;;;17.50;14.30;;;5.80;99.90;;;;;;5015889;28;20210;-64
2021/11/22 05:37:53;;;;;;;18.37;14.40;;;5.80;99.90;;;;;;5029886;28;20555;-64
2021/11/22 05:40:18;;;;;;;22.00;15.97;;;5.80;99.90;;;;;;5026460;28;20429;-64
2021/11/22 05:42:44;;;;;;;18.17;13.50;;;5.80;99.90;;;;;;5031622;28;20962;-64
2021/11/22 05:45:10;;;;;;;16.47;13.10;;;5.80;99.90;;;;;;5014031;28;20253;-64
2021/11/22 05:47:36;;;;;;;18.20;13.37;;;5.70;99.90;;;;;;5021876;28;20257;-64
2021/11/22 05:50:07;;;;;;;20.60;14.43;;;5.70;99.90;;;;;;5025034;28;20516;-64
2021/11/22 05:52:34;;;;;;;19.30;13.33;;;5.70;99.90;;;;;;5012515;28;20195;-65
2021/11/22 05:55:02;;;;;;;20.10;15.30;;;5.70;99.90;;;;;;5014491;28;20449;-63
2021/11/22 05:57:28;;;;;;;20.57;14.67;;;5.70;99.90;;;;;;5028275;28;20476;-64
2021/11/22 05:59:54;;;;;;;19.30;13.00;;;5.60;99.90;;;;;;5015180;28;20457;-63
2021/11/22 06:02:19;;;;;;;21.70;15.80;;;5.70;99.90;;;;;;5027587;28;20199;-62
2021/11/22 06:04:45;;;;;;;21.90;13.20;;;5.70;99.90;;;;;;5015351;28;20655;-65
2021/11/22 06:07:10;;;;;;;16.47;13.37;;;5.70;99.90;;;;;;5013095;28;20699;-64
2021/11/22 06:09:37;;;;;;;16.93;12.17;;;5.70;99.90;;;;;;5020783;28;20189;-64
2021/11/22 06:12:03;;;;;;;16.13;12.77;;;5.60;99.90;;;;;;5031127;28;20194;-64
2021/11/22 06:14:28;;;;;;;21.30;14.93;;;5.70;99.90;;;;;;5030141;28;20432;-65
2021/11/22 06:16:54;;;;;;;16.23;12.50;;;5.70;99.90;;;;;;5026097;28;20444;-63
2021/11/22 06:19:20;;;;;;;19.83;14.60;;;5.70;99.90;;;;;;5012631;28;20206;-66
2021/11/22 06:21:46;;;;;;;15.27;12.60;;;5.60;99.90;;;;;;5012289;28;20186;-65
2021/11/22 06:24:12;;;;;;;19.10;13.03;;;5.60;99.90;;;;;;5027430;28;20787;-65
2021/11/22 06:26:38;;;;;;;16.13;11.90;;;5.60;99.90;;;;;;5031047;28;20516;-65
2021/11/22 06:29:03;;;;;;;22.10;13.17;;;5.60;99.90;;;;;;5030700;28;20174;-63
2021/11/22 06:31:29;;;;;;;19.00;12.90;;;5.70;99.90;;;;;;5031317;28;20174;-66
2021/11/22 06:33:55;;;;;;;16.03;10.63;;;5.70;99.90;;;;;;5031030;28;20198;-65
2021/11/22 06:36:20;;;;;;;15.10;12.00;;;5.70;99.90;;;;;;5031139;28;20174;-66
2021/11/22 06:38:46;;;;;;;15.30;12.80;;;5.70;99.90;;;;;;5028336;28;20300;-65
2021/11/22 06:41:11;;;;;;;20.40;12.57;;;5.80;99.90;;;;;;5030972;28;20253;-65
2021/11/22 06:43:37;;;;;;;17.07;13.67;;;5.70;99.90;;;;;;5030833;28;20212;-64
2021/11/22 06:46:03;;;;;;;15.47;11.70;;;5.70;99.90;;;;;;5034220;28;20174;-64
2021/11/22 06:48:29;;;;;;;14.40;11.63;;;5.70;99.90;;;;;;5038262;28;20576;-64
2021/11/22 06:50:54;;;;;;;15.53;12.07;;;5.80;99.90;;;;;;5031166;28;20177;-65
2021/11/22 06:53:21;;;;;;;15.53;11.63;;;5.80;99.90;;;;;;5035374;28;20225;-65
2021/11/22 06:55:49;;;;;;;15.97;13.33;;;5.80;99.90;;;;;;5039682;28;20267;-65
2021/11/22 06:58:14;;;;;;;16.80;12.60;;;5.70;99.90;;;;;;5033422;28;20931;-66
2021/11/22 07:00:40;;;;;;;18.80;13.57;;;5.70;99.90;;;;;;5036951;28;20519;-64
2021/11/22 07:03:07;;;;;;;16.87;12.47;;;5.80;99.90;;;;;;5027199;28;20194;-64
2021/11/22 07:05:33;;;;;;;16.20;11.97;;;5.70;99.90;;;;;;5034391;28;20435;-64
2021/11/22 07:07:58;;;;;;;17.13;11.80;;;5.70;99.90;;;;;;5031696;28;20436;-64
2021/11/22 07:10:24;;;;;;;15.60;12.17;;;5.80;99.90;;;;;;5032569;28;20214;-66
2021/11/22 07:12:51;;;;;;;15.90;13.70;;;5.80;99.90;;;;;;5031056;28;20201;-64
2021/11/22 07:15:21;;;;;;;14.63;11.47;;;5.80;99.90;;;;;;5029661;28;20479;-64
2021/11/22 07:17:50;;;;;;;13.00;10.63;;;5.80;99.90;;;;;;5023986;28;20826;-65
2021/11/22 07:20:17;;;;;;;13.63;11.13;;;5.90;99.90;;;;;;5031342;28;20495;-65
2021/11/22 07:22:42;;;;;;;12.27;10.63;;;5.90;99.90;;;;;;5026094;28;20822;-66
2021/11/22 07:25:08;;;;;;;15.50;12.57;;;5.80;99.90;;;;;;5033846;28;20420;-64
2021/11/22 07:27:34;;;;;;;14.60;11.70;;;5.90;99.90;;;;;;5032153;28;20206;-64
2021/11/22 07:30:03;;;;;;;16.90;12.13;;;5.90;99.90;;;;;;5034028;28;21125;-66
2021/11/22 07:32:29;;;;;;;12.80;10.00;;;5.80;99.90;;;;;;5033469;28;20239;-65
2021/11/22 07:34:55;;;;;;;16.53;11.43;;;5.80;99.90;;;;;;5032880;28;20440;-66
2021/11/22 07:37:22;;;;;;;13.43;10.53;;;5.80;99.90;;;;;;5033530;28;20171;-66
2021/11/22 07:39:47;;;;;;;14.60;10.93;;;5.90;99.90;;;;;;5032564;28;20460;-64
2021/11/22 07:42:13;;;;;;;14.63;11.80;;;5.90;99.90;;;;;;5031283;28;20526;-67
2021/11/22 07:44:39;;;;;;;13.43;11.47;;;5.90;99.90;;;;;;5033402;28;20189;-67
2021/11/22 07:47:05;;;;;;;19.03;14.57;;;5.90;99.90;;;;;;5031208;28;20248;-67
2021/11/22 07:49:31;;;;;;;15.27;12.73;;;5.90;99.90;;;;;;5026605;28;20186;-66
2021/11/22 07:51:56;;;;;;;17.47;13.47;;;6.00;99.90;;;;;;5030608;28;20542;-65
2021/11/22 07:54:23;;;;;;;13.30;10.77;;;5.90;99.90;;;;;;5027223;28;20461;-67
2021/11/22 07:56:49;;;;;;;12.60;10.57;;;5.90;99.90;;;;;;5013032;28;20197;-64
2021/11/22 07:59:15;;;;;;;13.93;10.03;;;6.00;99.90;;;;;;5008716;28;21273;-66
2021/11/22 08:01:40;;;;;;;16.90;10.73;;;5.90;99.90;;;;;;5019674;28;20437;-66
2021/11/22 08:04:12;;;;;;;12.97;9.70;;;5.90;99.90;;;;;;5028967;28;20170;-65
2021/11/22 08:06:46;;;;;;;11.90;9.70;;;5.80;99.90;;;;;;5027681;28;20561;-64
2021/11/22 08:09:16;;;;;;;17.53;12.60;;;5.90;99.90;;;;;;5029984;28;20428;-66
2021/11/22 08:11:52;;;;;;;15.20;11.03;;;5.90;99.90;;;;;;5031664;28;20428;-66
2021/11/22 08:14:18;;;;;;;25.03;16.13;;;5.90;99.90;;;;;;5028908;28;20532;-65
2021/11/22 08:16:43;;;;;;;16.33;14.20;;;6.00;99.90;;;;;;5024491;28;20578;-65
2021/11/22 08:19:10;;;;;;;17.50;12.93;;;6.00;99.90;;;;;;5026852;28;20764;-65
2021/11/22 08:21:36;;;;;;;20.27;13.47;;;6.00;99.90;;;;;;5030349;28;20193;-65
2021/11/22 08:24:02;;;;;;;16.77;11.13;;;6.00;99.90;;;;;;5028045;28;20782;-65
2021/11/22 08:26:27;;;;;;;13.53;9.87;;;6.00;99.90;;;;;;5025197;28;20440;-65
2021/11/22 08:28:53;;;;;;;11.47;9.20;;;6.00;99.90;;;;;;5018856;28;20214;-66
2021/11/22 08:31:18;;;;;;;11.47;9.40;;;6.00;99.90;;;;;;5031767;28;20185;-65
2021/11/22 08:33:44;;;;;;;12.97;9.70;;;6.00;99.90;;;;;;5032162;28;20206;-65
2021/11/22 08:36:09;;;;;;;11.80;8.30;;;6.00;99.90;;;;;;5029384;28;20189;-66
2021/11/22 08:38:35;;;;;;;11.57;9.60;;;6.00;99.90;;;;;;5030566;28;20209;-64
2021/11/22 08:41:03;;;;;;;11.63;8.63;;;6.00;99.90;;;;;;5031243;28;20212;-62
2021/11/22 08:43:29;;;;;;;11.13;9.90;;;6.10;99.90;;;;;;5029949;28;20592;-62
2021/11/22 08:45:55;;;;;;;17.43;10.03;;;6.10;99.90;;;;;;5026884;28;20482;-66
2021/11/22 08:48:21;;;;;;;10.53;9.10;;;6.10;99.90;;;;;;5026527;28;20818;-66
2021/11/22 08:50:47;;;;;;;12.60;10.00;;;6.10;99.90;;;;;;5032641;28;20710;-65
2021/11/22 08:53:13;;;;;;;10.97;9.63;;;6.10;99.90;;;;;;5031313;28;20551;-66
2021/11/22 08:55:38;;;;;;;13.90;11.17;;;6.00;99.90;;;;;;5029769;28;20532;-65
2021/11/22 08:58:04;;;;;;;13.90;11.10;;;6.00;99.90;;;;;;5022391;28;20224;-66
2021/11/22 09:00:33;;;;;;;14.80;11.17;;;6.10;99.90;;;;;;5025929;28;20179;-66
2021/11/22 09:02:59;;;;;;;11.00;9.30;;;6.20;99.90;;;;;;5031530;28;20202;-65
2021/11/22 09:05:26;;;;;;;12.23;9.70;;;6.10;99.90;;;;;;5029402;28;20445;-66
2021/11/22 09:07:52;;;;;;;14.73;12.00;;;6.10;99.90;;;;;;5026591;28;20189;-65
2021/11/22 09:10:18;;;;;;;12.00;9.63;;;6.20;99.90;;;;;;5030029;28;20444;-65
2021/11/22 09:12:44;;;;;;;12.63;10.30;;;6.20;99.90;;;;;;5031800;28;20472;-65
2021/11/22 09:15:09;;;;;;;15.40;10.40;;;6.20;99.90;;;;;;5031923;28;20441;-65
2021/11/22 09:17:35;;;;;;;11.40;9.90;;;6.30;99.90;;;;;;5027242;28;20182;-65
2021/11/22 09:20:01;;;;;;;11.67;10.10;;;6.30;99.90;;;;;;5030879;28;20178;-65
2021/11/22 09:22:26;;;;;;;12.30;9.77;;;6.30;99.90;;;;;;5031280;28;20587;-65
2021/11/22 09:24:52;;;;;;;16.70;10.47;;;6.30;99.90;;;;;;5025771;28;20560;-66
2021/11/22 09:27:17;;;;;;;13.83;9.43;;;6.30;99.90;;;;;;5017456;28;20186;-66
2021/11/22 09:29:43;;;;;;;14.40;10.90;;;6.30;99.90;;;;;;5025927;28;20197;-66
2021/11/22 09:32:09;;;;;;;17.43;11.27;;;6.20;99.90;;;;;;5028723;28;20575;-66
2021/11/22 09:34:36;;;;;;;12.83;11.47;;;6.20;99.90;;;;;;5027640;28;20190;-65
2021/11/22 09:37:02;;;;;;;14.77;12.00;;;6.20;99.90;;;;;;5022923;28;20443;-67
2021/11/22 09:39:28;;;;;;;16.40;10.77;;;6.30;99.90;;;;;;5021213;28;20461;-65
2021/11/22 09:41:53;;;;;;;12.33;10.07;;;6.20;99.90;;;;;;5027303;28;20240;-66
2021/11/22 09:44:21;;;;;;;11.17;9.80;;;6.20;99.90;;;;;;5028412;28;20583;-66
2021/11/22 09:46:48;;;;;;;16.73;11.87;;;6.20;99.90;;;;;;5022372;28;22333;-65
2021/11/22 09:49:14;;;;;;;14.97;12.23;;;6.20;99.90;;;;;;5027319;28;20471;-66
2021/11/22 09:51:40;;;;;;;13.77;9.97;;;6.20;99.90;;;;;;5023563;28;20833;-66
2021/11/22 09:54:05;;;;;;;14.10;11.50;;;6.30;99.90;;;;;;5027916;28;20440;-65
2021/11/22 09:56:32;;;;;;;12.80;11.37;;;6.20;99.90;;;;;;5022051;28;20190;-67
2021/11/22 09:58:59;;;;;;;15.10;11.80;;;6.30;99.90;;;;;;5014358;28;20214;-67
2021/11/22 10:01:24;;;;;;;11.40;9.67;;;6.40;99.90;;;;;;5027841;28;20440;-66
2021/11/22 10:04:20;;;;;;;15.27;10.40;;;6.30;99.90;;;;;;5025222;28;20547;-66
2021/11/22 10:07:04;;;;;;;13.83;10.03;;;6.40;99.90;;;;;;5019663;28;20317;-66
2021/11/22 10:09:30;;;;;;;11.57;10.37;;;6.40;99.90;;;;;;5023303;28;20493;-67
2021/11/22 10:11:57;;;;;;;14.33;10.97;;;6.50;99.90;;;;;;5024751;28;20622;-67
2021/11/22 10:14:27;;;;;;;15.40;11.30;;;6.50;99.90;;;;;;5022943;28;20264;-66
2021/11/22 10:16:52;;;;;;;15.40;11.60;;;6.50;99.90;;;;;;5024445;28;20437;-66
2021/11/22 10:19:21;;;;;;;13.10;10.90;;;6.60;99.90;;;;;;5023949;28;20480;-65
2021/11/22 10:21:48;;;;;;;12.23;10.60;;;6.60;99.90;;;;;;5026610;28;20196;-66
2021/11/22 10:24:14;;;;;;;13.00;10.80;;;6.70;99.90;;;;;;5024248;28;20487;-66
2021/11/22 10:26:48;;;;;;;15.13;10.17;;;6.80;99.90;;;;;;5022697;28;20447;-66
2021/11/22 10:29:28;;;;;;;14.63;11.30;;;6.90;99.90;;;;;;5026791;28;20448;-66
2021/11/22 10:31:56;;;;;;;13.70;10.10;;;6.80;99.90;;;;;;5023284;28;20452;-66
2021/11/22 10:34:22;;;;;;;20.63;11.63;;;6.90;99.90;;;;;;5031020;28;20459;-66
2021/11/22 10:36:58;;;;;;;17.70;12.30;;;6.90;99.90;;;;;;5026620;28;20440;-67
2021/11/22 10:39:26;;;;;;;12.60;11.07;;;7.00;99.90;;;;;;5027990;28;20210;-67
2021/11/22 10:41:55;;;;;;;16.07;12.53;;;7.00;99.90;;;;;;5031567;28;20512;-66
2021/11/22 10:44:21;;;;;;;11.97;10.70;;;7.10;99.90;;;;;;5031422;28;20815;-66
2021/11/22 10:46:51;;;;;;;14.53;10.13;;;7.10;99.90;;;;;;5026662;28;20447;-65
2021/11/22 10:49:34;;;;;;;11.23;9.20;;;7.20;99.90;;;;;;5028819;28;20945;-66
2021/11/22 10:52:35;;;;;;;11.43;9.43;;;7.20;99.90;;;;;;5031091;28;20460;-67
2021/11/22 10:55:08;;;;;;;13.07;10.60;;;7.20;99.90;;;;;;5031036;28;20463;-66
2021/11/22 10:57:39;;;;;;;16.67;11.90;;;7.10;99.90;;;;;;5025580;28;20895;-67
2021/11/22 11:00:17;;;;;;;16.40;10.50;;;7.10;99.90;;;;;;5024471;28;20524;-67
2021/11/22 11:02:43;;;;;;;10.87;9.70;;;7.10;99.90;;;;;;5030081;28;20453;-65
2021/11/22 11:05:09;;;;;;;16.93;11.00;;;7.00;99.90;;;;;;5031050;28;20444;-66
2021/11/22 11:07:37;;;;;;;15.93;10.17;;;7.10;99.90;;;;;;5022499;28;20442;-66
2021/11/22 11:10:03;;;;;;;17.40;11.10;;;7.10;99.90;;;;;;5022647;28;20178;-65
2021/11/22 11:12:29;;;;;;;12.43;10.27;;;7.10;99.90;;;;;;5019686;28;20468;-66
2021/11/22 11:14:57;;;;;;;13.40;10.80;;;7.20;99.90;;;;;;5024262;28;20443;-65
2021/11/22 11:17:33;;;;;;;16.60;9.10;;;7.20;99.90;;;;;;5025373;28;20182;-64
2021/11/22 11:20:14;;;;;;;19.90;10.00;;;7.20;99.90;;;;;;5029759;28;20472;-64
2021/11/22 11:22:40;;;;;;;13.70;9.97;;;7.10;99.90;;;;;;5027089;28;20475;-66
2021/11/22 11:25:07;;;;;;;11.30;10.20;;;7.00;99.90;;;;;;5029837;28;20444;-64
2021/11/22 11:27:37;;;;;;;11.17;9.80;;;6.90;99.90;;;;;;5025890;28;20439;-65
2021/11/22 11:30:03;;;;;;;15.10;10.50;;;7.00;99.90;;;;;;5027561;28;20433;-66
2021/11/22 11:32:30;;;;;;;14.47;9.80;;;7.00;99.90;;;;;;5029751;28;20563;-64
2021/11/22 11:34:56;;;;;;;11.10;9.63;;;6.90;99.90;;;;;;5029493;28;20433;-65
2021/11/22 11:37:43;;;;;;;10.87;9.47;;;6.90;99.90;;;;;;5023165;28;20584;-65
2021/11/22 11:40:24;;;;;;;10.83;9.43;;;6.90;99.90;;;;;;5027595;28;20464;-64
2021/11/22 11:43:18;;;;;;;14.03;10.20;;;6.70;99.90;;;;;;5028734;28;20483;-65
2021/11/22 11:45:58;;;;;;;13.90;9.03;;;6.60;99.90;;;;;;5026501;28;20445;-67
2021/11/22 11:49:05;;;;;;;12.40;9.87;;;6.60;99.90;;;;;;5029700;28;20433;-64
2021/11/22 11:51:39;;;;;;;15.10;10.07;;;6.50;99.90;;;;;;5018441;28;20432;-67
2021/11/22 11:54:09;;;;;;;12.33;9.20;;;6.60;99.90;;;;;;5026507;28;20621;-65
2021/11/22 11:56:42;;;;;;;11.60;10.20;;;6.60;99.90;;;;;;5027326;28;20436;-66
2021/11/22 11:59:22;;;;;;;11.40;10.20;;;6.50;99.90;;;;;;5027654;28;20476;-64
2021/11/22 12:01:54;;;;;;;11.27;9.53;;;6.50;99.90;;;;;;5026678;28;20854;-65
2021/11/22 12:04:19;;;;;;;12.70;10.37;;;6.60;99.90;;;;;;5027312;28;20437;-65
2021/11/22 12:06:52;;;;;;;16.30;11.50;;;6.60;99.90;;;;;;5026229;28;21003;-64
2021/11/22 12:09:39;;;;;;;14.50;9.90;;;6.70;99.90;;;;;;5028789;28;20224;-66
2021/11/22 12:12:07;;;;;;;13.00;11.53;;;6.60;99.90;;;;;;5030269;28;21250;-66
2021/11/22 12:14:48;;;;;;;16.90;11.80;;;6.70;99.90;;;;;;5023655;28;20439;-68
2021/11/22 12:17:41;;;;;;;11.17;9.77;;;6.70;99.90;;;;;;5025630;28;20439;-68
2021/11/22 12:20:21;;;;;;;14.40;10.40;;;6.70;99.90;;;;;;5019205;28;20502;-66
2021/11/22 12:22:58;;;;;;;12.80;9.47;;;6.70;99.90;;;;;;5020068;28;20449;-66
2021/11/22 12:25:39;;;;;;;12.37;10.50;;;6.70;99.90;;;;;;5026736;28;20530;-67
2021/11/22 12:28:07;;;;;;;11.10;9.90;;;6.70;99.90;;;;;;5023047;28;20421;-66
2021/11/22 12:30:33;;;;;;;14.20;11.07;;;6.80;99.90;;;;;;5027461;28;20432;-67
2021/11/22 12:33:20;;;;;;;11.70;9.37;;;6.70;99.90;;;;;;5029594;28;20452;-67
2021/11/22 12:35:49;;;;;;;11.67;8.63;;;6.70;99.90;;;;;;5020559;28;20928;-68
2021/11/22 12:38:24;;;;;;;13.87;9.40;;;6.70;99.90;;;;;;5026849;28;20456;-67
2021/11/22 12:40:52;;;;;;;9.03;7.97;;;6.80;99.90;;;;;;5027767;28;20502;-66